Time;durP1;ratioP1;P1;durP2;ratioP2;P2;SDS_P1;SDS_P2;PMS_P1;PMS_P2;Temp;Humidity;BMP_temperature;BMP_pressure;BME280_temperature;BME280_humidity;BME280_pressure;Samples;Min_cycle;Max_cycle;Signal;HPM_P1;HPM_P2
2022/11/04 00:01:45;;;;;;;4.63;0.80;;;;;;;-140.72;100.00;52908.31;5051329;28;20044;-71
2022/11/04 00:04:13;;;;;;;1.90;0.40;;;;;;;-140.72;100.00;52888.03;5052102;28;20029;-71
2022/11/04 00:06:38;;;;;;;0.68;0.35;;;;;;;-140.72;100.00;52946.88;5051624;28;20714;-71
2022/11/04 00:09:06;;;;;;;2.60;1.00;;;;;;;-140.72;100.00;52886.00;5051963;28;20025;-74
2022/11/04 00:14:16;;;;;;;2.58;0.57;;;;;;;-140.72;100.00;52881.94;5052776;28;20120;-73
2022/11/04 00:19:25;;;;;;;1.45;0.57;;;;;;;-140.72;100.00;52900.19;5052169;28;20051;-71
2022/11/04 00:29:56;;;;;;;1.17;0.52;;;;;;;-140.72;100.00;52902.22;5050985;28;20500;-72
2022/11/04 00:35:08;;;;;;;3.90;0.60;;;;;;;-140.72;100.00;52867.72;5052340;28;20138;-71
2022/11/04 00:37:37;;;;;;;2.22;0.60;;;;;;;-140.72;100.00;52898.16;5051481;28;20025;-68
2022/11/04 00:40:06;;;;;;;2.38;0.68;;;;;;;-140.72;100.00;52916.44;5051687;28;20037;-71
2022/11/04 00:42:32;;;;;;;1.65;0.30;;;;;;;-140.72;100.00;52912.38;5052083;28;20547;-70
2022/11/04 00:44:57;;;;;;;4.45;1.17;;;;;;;-140.72;100.00;52928.63;5051026;28;20025;-71
2022/11/04 00:47:22;;;;;;;1.45;0.60;;;;;;;-140.72;100.00;52922.53;5052006;28;20025;-70
2022/11/04 00:49:48;;;;;;;1.75;0.20;;;;;;;-140.72;100.00;52908.31;5051172;28;20184;-71
2022/11/04 00:52:13;;;;;;;1.02;0.63;;;;;;;-140.72;100.00;52906.28;5051075;28;20031;-70
2022/11/04 00:54:39;;;;;;;0.68;0.57;;;;;;;-140.72;100.00;52906.28;5051493;28;20025;-69
2022/11/04 00:57:04;;;;;;;3.72;0.73;;;;;;;-140.72;100.00;52926.59;5051743;28;20051;-70
2022/11/04 00:59:29;;;;;;;2.20;0.40;;;;;;;-140.72;100.00;52902.22;5050514;28;20439;-71
2022/11/04 01:01:55;;;;;;;4.15;1.13;;;;;;;-140.72;100.00;52918.47;5050748;28;20108;-72
2022/11/04 01:04:20;;;;;;;1.52;0.60;;;;;;;-140.72;100.00;52886.00;5051211;28;20029;-72
2022/11/04 01:06:46;;;;;;;0.63;0.52;;;;;;;-140.72;100.00;52910.34;5050547;28;20029;-71
2022/11/04 01:09:12;;;;;;;0.75;0.50;;;;;;;-140.72;100.00;52896.16;5051182;28;20033;-71
2022/11/04 01:11:38;;;;;;;1.50;0.57;;;;;;;-140.72;100.00;52934.69;5050812;28;20078;-72
2022/11/04 01:14:04;;;;;;;2.63;0.65;;;;;;;-140.72;100.00;52900.19;5050447;28;20450;-71
2022/11/04 01:16:30;;;;;;;3.08;0.77;;;;;;;-140.72;100.00;52908.31;5049729;28;20033;-73
2022/11/04 01:18:55;;;;;;;2.80;1.15;;;;;;;-140.72;100.00;52950.94;5050748;28;20103;-73
2022/11/04 01:21:21;;;;;;;4.93;0.70;;;;;;;-140.72;100.00;52938.75;5050677;28;20445;-71
2022/11/04 01:23:47;;;;;;;1.83;0.70;;;;;;;-140.72;100.00;52910.34;5050866;28;20507;-73
2022/11/04 01:26:17;;;;;;;1.20;0.57;;;;;;;-140.72;100.00;52914.41;5050176;28;20028;-71
2022/11/04 01:28:44;;;;;;;2.92;0.68;;;;;;;-140.72;100.00;52946.88;5051023;28;20171;-72
2022/11/04 01:31:12;;;;;;;0.77;0.40;;;;;;;-140.72;100.00;52898.16;5050653;28;20385;-71
2022/11/04 01:33:38;;;;;;;1.25;0.68;;;;;;;-140.72;100.00;52902.22;5049513;28;20033;-70
2022/11/04 01:36:05;;;;;;;0.90;0.45;;;;;;;-140.72;100.00;52908.31;5050725;28;20039;-72
2022/11/04 01:38:30;;;;;;;2.17;0.65;;;;;;;-140.72;100.00;52912.38;5050289;28;20096;-71
2022/11/04 01:40:56;;;;;;;2.17;0.68;;;;;;;-140.72;100.00;52902.22;5049994;28;20033;-70
2022/11/04 01:43:22;;;;;;;3.05;0.57;;;;;;;-140.72;100.00;52920.50;5050285;28;20025;-72
2022/11/04 01:45:52;;;;;;;1.80;0.55;;;;;;;-140.72;100.00;52906.28;5050864;28;20045;-71
2022/11/04 01:48:23;;;;;;;1.17;0.70;;;;;;;-140.72;100.00;52957.03;5049494;28;20048;-72
2022/11/04 01:50:50;;;;;;;2.05;0.47;;;;;;;-140.72;100.00;52922.53;5050405;28;20473;-71
2022/11/04 01:53:25;;;;;;;3.42;0.60;;;;;;;-140.72;100.00;52894.13;5049403;28;20029;-71
2022/11/04 01:55:54;;;;;;;1.30;0.63;;;;;;;-140.72;100.00;52906.28;5050041;28;20025;-70
2022/11/04 01:58:24;;;;;;;0.82;0.55;;;;;;;-140.72;100.00;52916.44;5045917;28;20379;-70
2022/11/04 02:00:50;;;;;;;2.20;0.95;;;;;;;-140.72;100.00;52906.28;5043703;28;20029;-70
2022/11/04 02:03:37;;;;;;;1.30;0.60;;;;;;;-140.72;100.00;52908.31;5049237;28;20060;-74
2022/11/04 02:06:04;;;;;;;0.70;0.57;;;;;;;-140.72;100.00;52912.38;5050002;28;20025;-73
2022/11/04 02:08:30;;;;;;;0.82;0.52;;;;;;;-140.72;100.00;52940.78;5048954;28;20423;-71
2022/11/04 02:10:59;;;;;;;1.25;0.65;;;;;;;-140.72;100.00;52973.25;5048851;28;20172;-72
2022/11/04 02:13:27;;;;;;;2.10;0.95;;;;;;;-140.72;100.00;52894.13;5049666;28;20470;-71
2022/11/04 02:16:17;;;;;;;0.82;0.52;;;;;;;-140.72;100.00;52906.28;5049325;28;20032;-73
2022/11/04 02:19:19;;;;;;;1.20;0.70;;;;;;;-140.72;100.00;52932.66;5039545;28;20071;-73
2022/11/04 02:22:03;;;;;;;0.82;0.65;;;;;;;-140.72;100.00;52926.59;5045150;28;20094;-72
2022/11/04 02:24:52;;;;;;;2.35;1.00;;;;;;;-140.72;100.00;52936.72;5049015;28;20033;-72
2022/11/04 02:27:27;;;;;;;0.50;0.38;;;;;;;-140.72;100.00;52898.16;5050038;28;20135;-70
2022/11/04 02:29:58;;;;;;;2.75;1.08;;;;;;;-140.72;100.00;52930.66;5048921;28;20029;-73
2022/11/04 02:32:51;;;;;;;1.33;1.00;;;;;;;-140.72;100.00;52914.41;5049659;28;20017;-71
2022/11/04 02:35:35;;;;;;;1.88;0.80;;;;;;;-140.72;100.00;52924.56;5048941;28;20029;-74
2022/11/04 02:38:09;;;;;;;1.70;1.15;;;;;;;-140.72;100.00;52902.22;5047792;28;20056;-71
2022/11/04 02:40:57;;;;;;;3.08;1.73;;;;;;;-140.72;100.00;52940.78;5048663;28;20037;-71
2022/11/04 02:43:32;;;;;;;3.50;2.05;;;;;;;-140.72;100.00;52973.25;5047667;28;20378;-70
2022/11/04 02:46:31;;;;;;;3.20;2.30;;;;;;;-140.72;100.00;52936.72;5048711;28;20381;-71
2022/11/04 02:49:17;;;;;;;5.28;2.33;;;;;;;-140.72;100.00;52930.66;5048417;28;20056;-73
2022/11/04 02:51:57;;;;;;;5.65;3.55;;;;;;;-140.72;100.00;52950.94;5047396;28;20024;-72
2022/11/04 02:54:40;;;;;;;10.00;4.05;;;;;;;-140.72;100.00;52926.59;5048862;28;20029;-75
2022/11/04 02:57:10;;;;;;;7.95;3.70;;;;;;;-140.72;100.00;52912.38;5048998;28;20025;-72
2022/11/04 02:59:41;;;;;;;6.50;4.47;;;;;;;-140.72;100.00;52914.41;5048414;28;20066;-72
2022/11/04 03:02:13;;;;;;;9.32;4.85;;;;;;;-140.72;100.00;52910.34;5048650;28;20047;-74
2022/11/04 03:04:42;;;;;;;5.20;4.00;;;;;;;-140.72;100.00;52930.66;5029306;28;20056;-72
2022/11/04 03:07:13;;;;;;;7.15;5.53;;;;;;;-140.72;100.00;52934.69;5044864;28;20056;-71
2022/11/04 03:09:41;;;;;;;7.20;4.30;;;;;;;-140.72;100.00;52906.28;5048113;28;20040;-72
2022/11/04 03:12:13;;;;;;;10.18;5.00;;;;;;;-140.72;100.00;52959.06;5047180;28;20033;-73
2022/11/04 03:14:47;;;;;;;10.75;5.60;;;;;;;-140.72;100.00;52908.31;5048480;28;20332;-75
2022/11/04 03:17:31;;;;;;;7.47;5.13;;;;;;;-140.72;100.00;52942.81;5047945;28;20028;-74
2022/11/04 03:19:58;;;;;;;6.78;4.63;;;;;;;-140.72;100.00;52922.53;5047685;28;20489;-73
2022/11/04 03:22:29;;;;;;;8.77;5.20;;;;;;;-140.72;100.00;52906.28;5048525;28;20025;-70
2022/11/04 03:24:55;;;;;;;6.38;4.95;;;;;;;-140.72;100.00;52873.81;5047544;28;20115;-73
2022/11/04 03:27:21;;;;;;;8.88;5.32;;;;;;;-140.72;100.00;52946.88;5045215;28;20032;-70
2022/11/04 03:30:05;;;;;;;7.32;5.60;;;;;;;-140.72;100.00;52928.63;5047976;28;20029;-70
2022/11/04 03:32:41;;;;;;;9.07;5.93;;;;;;;-140.72;100.00;52926.59;5046125;28;20127;-72
2022/11/04 03:35:08;;;;;;;5.18;3.97;;;;;;;-140.72;100.00;52938.75;5041345;28;20060;-71
2022/11/04 03:37:34;;;;;;;11.77;6.72;;;;;;;-140.72;100.00;52971.22;5046843;28;20453;-71
2022/11/04 03:40:00;;;;;;;5.25;3.90;;;;;;;-140.72;100.00;52918.47;5047116;28;20063;-73
2022/11/04 03:42:27;;;;;;;6.30;3.95;;;;;;;-140.72;100.00;52938.75;5046744;28;20029;-71
2022/11/04 03:44:55;;;;;;;7.80;4.78;;;;;;;-140.72;100.00;52959.06;5047682;28;20107;-72
2022/11/04 03:47:23;;;;;;;8.63;5.43;;;;;;;-140.72;100.00;52934.69;5046501;28;20074;-72
2022/11/04 03:49:51;;;;;;;7.13;5.40;;;;;;;-140.72;100.00;52944.84;5045289;28;20041;-74
2022/11/04 03:52:17;;;;;;;9.07;4.88;;;;;;;-140.72;100.00;52938.75;5046795;28;20025;-71
2022/11/04 03:54:43;;;;;;;9.02;6.03;;;;;;;-140.72;100.00;52926.59;5047268;28;20064;-72
2022/11/04 03:57:35;;;;;;;9.15;6.25;;;;;;;-140.72;100.00;52942.81;5048125;28;20028;-73
2022/11/04 04:00:05;;;;;;;7.88;5.05;;;;;;;-140.72;100.00;52938.75;5047004;28;20033;-72
2022/11/04 04:02:56;;;;;;;4.97;3.35;;;;;;;-140.72;100.00;52946.88;5045454;28;20488;-71
2022/11/04 04:05:34;;;;;;;10.02;4.78;;;;;;;-140.72;100.00;52983.41;5046346;28;20075;-71
2022/11/04 04:08:09;;;;;;;10.95;5.15;;;;;;;-140.72;100.00;52932.66;5044583;28;20120;-71
2022/11/04 04:11:06;;;;;;;6.38;4.32;;;;;;;-140.72;100.00;52920.50;5046281;28;20025;-74
2022/11/04 04:13:55;;;;;;;9.70;4.07;;;;;;;-140.72;100.00;52963.13;5046619;28;20021;-71
2022/11/04 04:16:33;;;;;;;9.02;4.70;;;;;;;-140.72;100.00;52942.81;5046468;28;20025;-74
2022/11/04 04:19:20;;;;;;;5.55;4.13;;;;;;;-140.72;100.00;52967.16;5046630;28;20039;-72
2022/11/04 04:21:52;;;;;;;11.88;5.40;;;;;;;-140.72;100.00;52963.13;5047821;28;20478;-74
2022/11/04 04:29:52;;;;;;;8.95;5.07;;;;;;;-140.72;100.00;52946.88;5044845;28;20052;-71
2022/11/04 04:32:20;;;;;;;5.82;3.03;;;;;;;-140.72;100.00;52987.47;5047439;28;20033;-71
2022/11/04 04:34:45;;;;;;;7.18;3.95;;;;;;;-140.72;100.00;52934.69;5048561;28;20120;-71
2022/11/04 04:37:19;;;;;;;7.47;4.95;;;;;;;-140.72;100.00;52965.16;5050546;28;20625;-71
2022/11/04 04:45:33;;;;;;;7.88;4.50;;;;;;;-140.72;100.00;52965.16;5051141;28;20098;-72
2022/11/04 04:47:58;;;;;;;6.07;4.75;;;;;;;-140.72;100.00;52979.34;5050089;28;20118;-71
2022/11/04 04:50:30;;;;;;;9.57;5.10;;;;;;;-140.72;100.00;52952.97;5048322;28;20025;-75
2022/11/04 04:52:58;;;;;;;5.07;3.40;;;;;;;-140.72;100.00;52950.94;5050983;28;20355;-71
2022/11/04 04:55:24;;;;;;;7.93;5.53;;;;;;;-140.72;100.00;52963.13;5050897;28;20374;-74
2022/11/04 04:57:49;;;;;;;5.57;3.88;;;;;;;-140.72;100.00;52948.91;5050274;28;20092;-71
2022/11/04 05:00:18;;;;;;;6.95;3.55;;;;;;;-140.72;100.00;52971.22;5050408;28;20359;-71
2022/11/04 05:02:43;;;;;;;6.45;3.83;;;;;;;-140.72;100.00;52959.06;5050650;28;20021;-71
2022/11/04 05:05:09;;;;;;;6.13;3.33;;;;;;;-140.72;100.00;53007.75;5049984;28;20028;-71
2022/11/04 05:07:35;;;;;;;6.00;4.28;;;;;;;-140.72;100.00;52955.00;5050484;28;20021;-70
2022/11/04 05:10:01;;;;;;;7.30;4.18;;;;;;;-140.72;100.00;52969.19;5050041;28;20033;-74
2022/11/04 05:13:24;;;;;;;10.63;4.15;;;;;;;-140.72;100.00;52938.75;5049773;28;20561;-73
2022/11/04 05:15:12;;;;;;;7.78;4.63;;;;;;;-140.72;100.00;52942.81;5050379;28;20235;-71
2022/11/04 05:17:37;;;;;;;5.72;4.25;;;;;;;-140.72;100.00;52971.22;5050362;28;20025;-71
2022/11/04 05:20:03;;;;;;;8.68;5.75;;;;;;;-140.72;100.00;52942.81;5050539;28;20458;-70
2022/11/04 05:22:28;;;;;;;6.20;4.57;;;;;;;-140.72;100.00;52932.66;5049747;28;20052;-72
2022/11/04 05:24:54;;;;;;;7.63;4.03;;;;;;;-140.72;100.00;52918.47;5050442;28;20024;-71
2022/11/04 05:27:19;;;;;;;6.03;3.78;;;;;;;-140.72;100.00;52955.00;5049869;28;20025;-72
2022/11/04 05:29:44;;;;;;;6.90;4.18;;;;;;;-140.72;100.00;52973.25;5050151;28;20115;-73
2022/11/04 05:32:10;;;;;;;10.38;3.85;;;;;;;-140.72;100.00;52948.91;5049236;28;20480;-71
2022/11/04 05:34:35;;;;;;;7.75;4.45;;;;;;;-140.72;100.00;52979.34;5050344;28;20104;-71
2022/11/04 05:37:01;;;;;;;8.27;4.15;;;;;;;-140.72;100.00;52932.66;5049361;28;20067;-71
2022/11/04 05:39:26;;;;;;;7.68;4.20;;;;;;;-140.72;100.00;52926.59;5049868;28;20021;-71
2022/11/04 05:41:51;;;;;;;6.35;4.65;;;;;;;-140.72;100.00;52902.22;5050515;28;20165;-71
2022/11/04 05:44:17;;;;;;;8.10;4.10;;;;;;;-140.72;100.00;52995.59;5049467;28;20545;-74
2022/11/04 05:46:45;;;;;;;5.90;3.85;;;;;;;-140.72;100.00;52950.94;5049345;28;20509;-72
2022/11/04 05:49:11;;;;;;;9.15;4.47;;;;;;;-140.72;100.00;52942.81;5030906;28;20123;-72
2022/11/04 05:51:36;;;;;;;6.10;3.97;;;;;;;-140.72;100.00;52965.16;5049586;28;20467;-71
2022/11/04 05:54:02;;;;;;;5.20;3.90;;;;;;;-140.72;100.00;52946.88;5049005;28;20029;-71
2022/11/04 05:56:27;;;;;;;5.60;3.50;;;;;;;-140.72;100.00;52934.69;5050143;28;20383;-75
2022/11/04 05:58:53;;;;;;;6.72;3.63;;;;;;;-140.72;100.00;52975.28;5047260;28;20029;-71
2022/11/04 06:01:37;;;;;;;7.45;4.18;;;;;;;-140.72;100.00;52959.06;5049270;28;20359;-71
2022/11/04 06:04:04;;;;;;;5.43;3.38;;;;;;;-140.72;100.00;52959.06;5047535;28;20420;-71
2022/11/04 06:06:32;;;;;;;6.22;3.28;;;;;;;-140.72;100.00;52957.03;5049719;28;20021;-73
2022/11/04 06:08:59;;;;;;;8.50;3.53;;;;;;;-140.72;100.00;52942.81;5049053;28;20044;-74
2022/11/04 06:11:26;;;;;;;5.60;3.55;;;;;;;-140.72;100.00;52946.88;5049907;28;20025;-72
2022/11/04 06:13:53;;;;;;;10.43;4.10;;;;;;;-140.72;100.00;52934.69;5049476;28;20135;-71
2022/11/04 06:16:19;;;;;;;7.72;3.30;;;;;;;-140.72;100.00;52932.66;5047863;28;20044;-71
2022/11/04 06:18:44;;;;;;;6.70;3.25;;;;;;;-140.72;100.00;52942.81;5048422;28;20028;-72
2022/11/04 06:21:12;;;;;;;6.43;3.30;;;;;;;-140.72;100.00;52938.75;5049355;28;20163;-71
2022/11/04 06:23:41;;;;;;;8.23;4.05;;;;;;;-140.72;100.00;52975.28;5048524;28;20024;-71
2022/11/04 06:26:07;;;;;;;5.57;3.40;;;;;;;-140.72;100.00;52940.78;5049119;28;20100;-74
2022/11/04 06:28:32;;;;;;;3.83;2.70;;;;;;;-140.72;100.00;52981.38;5048648;28;20035;-72
2022/11/04 06:30:59;;;;;;;3.78;2.55;;;;;;;-140.72;100.00;52938.75;5048468;28;20029;-72
2022/11/04 06:33:25;;;;;;;5.53;3.08;;;;;;;-140.72;100.00;52938.75;5049039;28;20032;-74
2022/11/04 06:35:51;;;;;;;5.82;3.40;;;;;;;-140.72;100.00;52932.66;5048752;28;20029;-72
2022/11/04 06:38:16;;;;;;;12.02;4.22;;;;;;;-140.72;100.00;52936.72;5048850;28;20037;-73
2022/11/04 06:40:42;;;;;;;10.45;3.83;;;;;;;-140.72;100.00;52928.63;5047551;28;20493;-72
2022/11/04 06:43:07;;;;;;;11.35;3.65;;;;;;;-140.72;100.00;52932.66;5046859;28;20040;-72
2022/11/04 06:45:32;;;;;;;7.35;3.53;;;;;;;-140.72;100.00;52938.75;5048517;28;20087;-71
2022/11/04 06:47:58;;;;;;;10.65;3.10;;;;;;;-140.72;100.00;52916.44;5048756;28;20048;-73
2022/11/04 06:50:24;;;;;;;9.00;3.05;;;;;;;-140.72;100.00;52934.69;5047834;28;20036;-72
2022/11/04 06:52:49;;;;;;;6.63;3.13;;;;;;;-140.72;100.00;52946.88;5048760;28;20021;-71
2022/11/04 06:55:14;;;;;;;6.68;3.40;;;;;;;-140.72;100.00;52971.22;5048307;28;20068;-72
2022/11/04 06:57:40;;;;;;;7.50;3.08;;;;;;;-140.72;100.00;52904.25;5047396;28;20032;-70
2022/11/04 07:00:06;;;;;;;4.90;2.58;;;;;;;-140.72;100.00;52946.88;5049079;28;20375;-71
2022/11/04 07:02:31;;;;;;;8.13;3.58;;;;;;;-140.72;100.00;52944.84;5047426;28;20072;-73
2022/11/04 07:04:56;;;;;;;5.70;3.45;;;;;;;-140.72;100.00;52973.25;5046554;28;20032;-71
2022/11/04 07:07:22;;;;;;;4.95;3.33;;;;;;;-140.72;100.00;52934.69;5047975;28;20021;-71
2022/11/04 07:09:47;;;;;;;8.88;4.10;;;;;;;-140.72;100.00;52965.16;5048233;28;20102;-73
2022/11/04 07:12:12;;;;;;;8.70;3.88;;;;;;;-140.72;100.00;52957.03;5047648;28;20033;-72
2022/11/04 07:14:38;;;;;;;6.50;4.38;;;;;;;-140.72;100.00;52942.81;5047672;28;20119;-71
2022/11/04 07:17:03;;;;;;;5.95;3.40;;;;;;;-140.72;100.00;52963.13;5045981;28;20112;-73
2022/11/04 07:19:29;;;;;;;5.82;3.42;;;;;;;-140.72;100.00;52983.41;5047748;28;20032;-72
2022/11/04 07:21:54;;;;;;;8.90;4.63;;;;;;;-140.72;100.00;52973.25;5047852;28;20029;-72
2022/11/04 07:24:19;;;;;;;6.13;3.75;;;;;;;-140.72;100.00;52936.72;5047539;28;20474;-70
2022/11/04 07:26:45;;;;;;;5.40;3.65;;;;;;;-140.72;100.00;52918.47;5045971;28;20052;-71
2022/11/04 07:29:10;;;;;;;8.52;3.95;;;;;;;-140.72;100.00;52910.34;5048331;28;20029;-73
2022/11/04 07:31:37;;;;;;;8.73;4.28;;;;;;;-140.72;100.00;52942.81;5048426;28;20040;-71
2022/11/04 07:34:02;;;;;;;5.13;3.13;;;;;;;-140.72;100.00;52971.22;5046824;28;20033;-71
2022/11/04 07:36:28;;;;;;;5.35;3.40;;;;;;;-140.72;100.00;52969.19;5048428;28;20063;-73
2022/11/04 07:38:54;;;;;;;4.93;3.70;;;;;;;-140.72;100.00;52920.50;5047051;28;20028;-72
2022/11/04 07:41:19;;;;;;;10.18;3.95;;;;;;;-140.72;100.00;52955.00;5046473;28;20087;-71
2022/11/04 07:43:51;;;;;;;7.70;3.95;;;;;;;-140.72;100.00;52965.16;5047445;28;20025;-71
2022/11/04 07:46:18;;;;;;;6.75;4.13;;;;;;;-140.72;100.00;52916.44;5044491;28;20120;-71
2022/11/04 07:48:44;;;;;;;6.57;3.28;;;;;;;-140.72;100.00;52896.16;5047182;28;20111;-71
2022/11/04 07:51:12;;;;;;;7.40;3.85;;;;;;;-140.72;100.00;52955.00;5047927;28;20434;-72
2022/11/04 07:53:38;;;;;;;7.60;3.97;;;;;;;-140.72;100.00;52963.13;5045526;28;20032;-74
2022/11/04 07:56:10;;;;;;;10.40;3.25;;;;;;;-140.72;100.00;52894.13;5047339;28;20132;-70
2022/11/04 07:58:36;;;;;;;5.40;2.63;;;;;;;-140.72;100.00;52924.56;5044653;28;20036;-70
2022/11/04 08:01:08;;;;;;;5.47;3.28;;;;;;;-140.72;100.00;52918.47;5045822;28;20037;-74
2022/11/04 08:03:34;;;;;;;8.23;3.83;;;;;;;-140.72;100.00;52955.00;5045118;28;20470;-72
2022/11/04 08:06:02;;;;;;;6.20;3.60;;;;;;;-140.72;100.00;52934.69;5045756;28;20056;-72
2022/11/04 08:08:28;;;;;;;5.20;3.50;;;;;;;-140.72;100.00;52906.28;5046593;28;20080;-72
2022/11/04 08:10:59;;;;;;;11.20;3.30;;;;;;;-140.72;100.00;52883.97;5048322;28;20093;-71
2022/11/04 08:13:33;;;;;;;4.72;3.08;;;;;;;-140.72;100.00;52938.75;5051145;28;20469;-71
2022/11/04 08:16:08;;;;;;;9.73;4.35;;;;;;;-140.72;100.00;52932.66;5049488;28;20068;-73
2022/11/04 08:18:34;;;;;;;6.93;3.47;;;;;;;-140.72;100.00;52930.66;5047949;28;20037;-70
2022/11/04 08:21:01;;;;;;;5.55;3.85;;;;;;;-140.72;100.00;52934.69;5049004;28;20025;-71
2022/11/04 08:23:27;;;;;;;9.13;3.30;;;;;;;-140.72;100.00;52906.28;5050721;28;20158;-72
2022/11/04 08:25:53;;;;;;;7.35;3.63;;;;;;;-140.72;100.00;52969.19;5050138;28;20032;-71
2022/11/04 08:28:18;;;;;;;9.13;4.55;;;;;;;-140.72;100.00;52908.31;5049137;28;20787;-74
2022/11/04 08:31:00;;;;;;;8.80;3.90;;;;;;;-140.72;100.00;52932.66;5049063;28;20029;-74
2022/11/04 08:33:27;;;;;;;7.13;4.07;;;;;;;-140.72;100.00;52926.59;5050991;28;20251;-71
2022/11/04 08:35:54;;;;;;;9.70;4.50;;;;;;;-140.72;100.00;52908.31;5050240;28;20446;-74
2022/11/04 08:38:20;;;;;;;10.77;4.97;;;;;;;-140.72;100.00;52932.66;5050636;28;20527;-72
2022/11/04 08:40:48;;;;;;;10.10;4.80;;;;;;;-140.72;100.00;52898.16;5050685;28;20021;-71
2022/11/04 08:43:16;;;;;;;10.70;4.45;;;;;;;-140.72;100.00;52916.44;5052351;28;20059;-71
2022/11/04 08:45:44;;;;;;;7.20;4.45;;;;;;;-140.72;100.00;52877.88;5054337;28;20052;-71
2022/11/04 08:48:10;;;;;;;6.15;4.88;;;;;;;-140.72;100.00;52902.22;5050171;28;20033;-70
2022/11/04 08:50:35;;;;;;;7.07;5.05;;;;;;;-140.72;100.00;52918.47;5049460;28;20478;-70
2022/11/04 08:53:02;;;;;;;8.80;5.85;;;;;;;-140.72;100.00;52900.19;5050560;28;20052;-71
2022/11/04 08:55:28;;;;;;;8.45;5.07;;;;;;;-140.72;100.00;52896.16;5050025;28;20033;-73
2022/11/04 08:57:54;;;;;;;13.20;5.80;;;;;;;-140.72;100.00;52881.94;5048799;28;20032;-70
2022/11/04 09:00:19;;;;;;;12.45;4.97;;;;;;;-140.72;100.00;52920.50;5050322;28;20029;-71
2022/11/04 09:02:45;;;;;;;8.70;5.05;;;;;;;-140.72;100.00;52865.69;5049783;28;20031;-72
2022/11/04 09:05:13;;;;;;;10.23;5.43;;;;;;;-140.72;100.00;52963.13;5049056;28;20029;-73
2022/11/04 09:07:39;;;;;;;6.18;4.45;;;;;;;-140.72;100.00;52918.47;5049586;28;20043;-71
2022/11/04 09:10:05;;;;;;;7.65;5.03;;;;;;;-140.72;100.00;52920.50;5050534;28;20021;-73
2022/11/04 09:12:30;;;;;;;11.25;4.78;;;;;;;-140.72;100.00;52914.41;5049022;28;20048;-72
2022/11/04 09:14:56;;;;;;;8.30;4.60;;;;;;;-140.72;100.00;52888.03;5049839;28;20068;-71
2022/11/04 09:17:21;;;;;;;5.45;4.07;;;;;;;-140.72;100.00;52894.13;5048319;28;20324;-71
2022/11/04 09:19:46;;;;;;;7.50;4.43;;;;;;;-140.72;100.00;52906.28;5049435;28;20021;-72
2022/11/04 09:22:12;;;;;;;6.07;4.28;;;;;;;-140.72;100.00;52902.22;5050271;28;20478;-70
2022/11/04 09:24:37;;;;;;;5.05;4.00;;;;;;;-140.72;100.00;52902.22;5048136;28;20021;-74
2022/11/04 09:27:04;;;;;;;7.78;4.88;;;;;;;-140.72;100.00;52910.34;5044684;28;20600;-71
2022/11/04 09:29:32;;;;;;;12.77;5.22;;;;;;;-140.72;100.00;52877.88;5048922;28;20028;-73
2022/11/04 09:31:58;;;;;;;7.40;4.55;;;;;;;-140.72;100.00;52881.94;5047730;28;20059;-74
2022/11/04 09:34:23;;;;;;;10.35;5.78;;;;;;;-140.72;100.00;52894.13;5047583;28;20048;-73
2022/11/04 09:36:49;;;;;;;10.35;4.68;;;;;;;-140.72;100.00;52867.72;5049017;28;20116;-72
2022/11/04 09:39:14;;;;;;;12.32;5.47;;;;;;;-140.72;100.00;52873.81;5048155;28;20060;-72
2022/11/04 09:42:10;;;;;;;7.95;5.00;;;;;;;-140.72;100.00;52886.00;5047444;28;20105;-71
2022/11/04 09:45:00;;;;;;;9.23;5.35;;;;;;;-140.72;100.00;52873.81;5046753;28;20069;-71
2022/11/04 09:47:27;;;;;;;7.00;5.55;;;;;;;-140.72;100.00;52869.75;5045616;28;20112;-76
2022/11/04 09:49:57;;;;;;;13.35;5.72;;;;;;;-140.72;100.00;52823.09;5048126;28;20037;-72
2022/11/04 09:52:36;;;;;;;9.73;6.20;;;;;;;-140.72;100.00;52849.47;5044251;28;20041;-73
2022/11/04 09:55:24;;;;;;;7.90;6.00;;;;;;;-140.72;100.00;52879.91;5044745;28;20029;-73
2022/11/04 09:57:57;;;;;;;9.15;5.07;;;;;;;-140.72;100.00;52875.84;5048073;28;20425;-72
2022/11/04 10:00:23;;;;;;;7.90;4.22;;;;;;;-140.72;100.00;52873.81;5048700;28;20025;-73
2022/11/04 10:03:43;;;;;;;9.38;4.38;;;;;;;-140.72;100.00;52871.78;5047433;28;20029;-72
2022/11/04 10:06:26;;;;;;;;;;;;;;;-140.72;100.00;52867.72;5006265;28;20041;-74
2022/11/04 10:09:13;;;;;;;6.80;4.65;;;;;;;-140.72;100.00;52849.47;5048750;28;19916;-74
2022/11/04 10:12:14;;;;;;;5.18;4.15;;;;;;;-140.72;100.00;52853.53;5043131;28;20037;-71
2022/11/04 10:14:56;;;;;;;6.22;4.35;;;;;;;-140.72;100.00;52904.25;5047682;28;20028;-74
2022/11/04 10:17:42;;;;;;;7.15;5.22;;;;;;;-140.72;100.00;52865.69;5045925;28;20025;-74
2022/11/04 10:20:30;;;;;;;9.75;5.13;;;;;;;-140.72;100.00;52863.66;5046386;28;20063;-72
2022/11/04 10:23:08;;;;;;;6.32;4.18;;;;;;;-140.72;100.00;52823.09;5048050;28;20032;-70
2022/11/04 10:25:53;;;;;;;9.43;4.45;;;;;;;-140.72;100.00;52886.00;5045269;28;20025;-73
2022/11/04 10:28:21;;;;;;;12.10;4.90;;;;;;;-140.72;100.00;52861.66;5045739;28;20124;-70
2022/11/04 10:30:49;;;;;;;5.00;3.50;;;;;;;-140.72;100.00;52849.47;5047520;28;20033;-74
2022/11/04 10:33:33;;;;;;;6.60;4.18;;;;;;;-140.72;100.00;52855.56;5047181;28;20020;-72
2022/11/04 10:36:06;;;;;;;8.32;4.50;;;;;;;-140.72;100.00;52831.19;5017059;28;20071;-71
2022/11/04 10:38:37;;;;;;;5.50;3.65;;;;;;;-140.72;100.00;52849.47;5047800;28;20036;-72
2022/11/04 10:41:32;;;;;;;5.00;3.53;;;;;;;-140.72;100.00;52831.19;5047457;28;20060;-72
2022/11/04 10:44:07;;;;;;;6.95;4.57;;;;;;;-140.72;100.00;52841.34;5046808;28;20094;-72
2022/11/04 10:47:03;;;;;;;4.20;3.63;;;;;;;-140.72;100.00;52817.00;5048794;28;20033;-70
2022/11/04 10:49:37;;;;;;;10.45;3.80;;;;;;;-140.72;100.00;52829.19;5042748;28;20334;-71
2022/11/04 10:52:05;;;;;;;5.15;3.35;;;;;;;-140.72;100.00;52833.22;5046729;28;20032;-72
2022/11/04 10:54:45;;;;;;;4.57;3.33;;;;;;;-140.72;100.00;52833.22;5047432;28;20530;-74
2022/11/04 10:57:15;;;;;;;5.00;3.30;;;;;;;-140.72;100.00;52774.38;5042356;28;20037;-72
2022/11/04 11:00:31;;;;;;;5.45;3.75;;;;;;;-140.72;100.00;52825.13;5048834;28;20039;-74
2022/11/04 11:02:56;;;;;;;6.55;3.45;;;;;;;-140.72;100.00;52802.78;5020858;28;20493;-74
2022/11/04 11:05:24;;;;;;;4.32;2.97;;;;;;;-140.72;100.00;52780.47;5047310;28;20382;-71
2022/11/04 11:07:56;;;;;;;7.15;3.13;;;;;;;-140.72;100.00;52796.72;5047623;28;20589;-71
2022/11/04 11:10:28;;;;;;;3.45;2.75;;;;;;;-140.72;100.00;52778.44;5036896;28;20025;-71
2022/11/04 11:13:03;;;;;;;3.65;2.20;;;;;;;-140.72;100.00;52780.47;5046530;28;20347;-71
2022/11/04 11:15:34;;;;;;;4.70;1.92;;;;;;;-140.72;100.00;52794.69;5047021;28;20037;-73
2022/11/04 11:18:22;;;;;;;3.15;1.77;;;;;;;-140.72;100.00;52780.47;5046523;28;20040;-72
2022/11/04 11:20:50;;;;;;;7.65;2.38;;;;;;;-140.72;100.00;52758.16;5045492;28;20028;-72
2022/11/04 11:23:50;;;;;;;3.72;1.92;;;;;;;-140.72;100.00;52792.66;5043168;28;20030;-72
2022/11/04 11:26:18;;;;;;;2.97;1.95;;;;;;;-140.72;100.00;52772.34;5045736;28;20024;-72
2022/11/04 11:28:50;;;;;;;3.40;1.95;;;;;;;-140.72;100.00;52772.34;5047199;28;20029;-73
2022/11/04 11:31:22;;;;;;;5.75;2.00;;;;;;;-140.72;100.00;52756.13;5047365;28;20491;-72
2022/11/04 11:34:36;;;;;;;4.18;1.63;;;;;;;-140.72;100.00;52768.28;5046675;28;20025;-72
2022/11/04 11:37:03;;;;;;;5.10;1.52;;;;;;;-140.72;100.00;52768.28;5043023;28;20037;-73
2022/11/04 11:39:31;;;;;;;1.73;1.10;;;;;;;-140.72;100.00;52762.22;5046259;28;20115;-73
2022/11/04 11:42:26;;;;;;;1.48;1.10;;;;;;;-140.72;100.00;52806.84;5047453;28;20043;-74
2022/11/04 11:44:55;;;;;;;6.30;1.90;;;;;;;-140.72;100.00;52776.41;5037712;28;20041;-74
2022/11/04 11:47:30;;;;;;;2.35;1.55;;;;;;;-140.72;100.00;52776.41;5052778;28;20102;-72
2022/11/04 11:50:19;;;;;;;2.30;1.33;;;;;;;-140.72;100.00;52780.47;5051762;28;20037;-72
2022/11/04 11:52:46;;;;;;;3.10;1.48;;;;;;;-140.72;100.00;52784.53;5051196;28;20376;-71
2022/11/04 11:55:17;;;;;;;2.22;1.50;;;;;;;-140.72;100.00;52778.44;5051769;28;20393;-70